createdAt,value
2023-06-05T00:00:59.543Z,1.70
2023-06-05T00:03:28.178Z,1.73
2023-06-05T00:05:55.599Z,1.77
2023-06-05T00:08:22.944Z,1.70
2023-06-05T00:10:49.875Z,2.00
2023-06-05T00:13:17.332Z,1.70
2023-06-05T00:15:44.326Z,1.83
2023-06-05T00:18:11.347Z,1.80
2023-06-05T00:20:38.390Z,1.60
2023-06-05T00:23:05.405Z,1.70
2023-06-05T00:25:32.217Z,1.90
2023-06-05T00:27:59.005Z,1.83
2023-06-05T00:30:25.875Z,1.80
2023-06-05T00:32:52.844Z,1.50
2023-06-05T00:35:19.787Z,1.80
2023-06-05T00:37:47.996Z,1.87
2023-06-05T00:40:15.478Z,1.63
2023-06-05T00:42:42.285Z,1.60
2023-06-05T00:45:09.596Z,1.60
2023-06-05T00:47:37.185Z,1.70
2023-06-05T00:50:04.726Z,1.53
2023-06-05T00:52:33.739Z,1.40
2023-06-05T00:55:02.301Z,1.33
2023-06-05T00:57:29.479Z,1.50
2023-06-05T00:59:56.520Z,1.33
2023-06-05T01:02:23.563Z,1.70
2023-06-05T01:04:50.621Z,1.60
2023-06-05T01:07:18.904Z,1.67
2023-06-05T01:09:45.905Z,1.53
2023-06-05T01:12:18.514Z,1.40
2023-06-05T01:14:49.233Z,1.40
2023-06-05T01:17:20.277Z,1.53
2023-06-05T01:19:49.584Z,1.40
2023-06-05T01:22:17.131Z,1.07
2023-06-05T01:24:43.922Z,1.57
2023-06-05T01:27:19.733Z,1.40
2023-06-05T01:30:08.449Z,1.40
2023-06-05T01:33:03.455Z,1.30
2023-06-05T01:35:34.005Z,1.30
2023-06-05T01:38:03.703Z,1.20
2023-06-05T01:40:32.085Z,1.50
2023-06-05T01:43:01.255Z,1.40
2023-06-05T01:45:28.779Z,1.60
2023-06-05T01:47:58.017Z,1.50
2023-06-05T01:50:25.864Z,1.30
2023-06-05T01:52:53.439Z,1.40
2023-06-05T01:55:25.197Z,1.50
2023-06-05T01:57:52.505Z,1.60
2023-06-05T02:00:19.811Z,1.40
2023-06-05T02:02:48.662Z,1.57
2023-06-05T02:05:16.827Z,1.10
2023-06-05T02:07:54.352Z,1.50
2023-06-05T02:10:21.982Z,1.20
2023-06-05T02:12:49.673Z,1.27
2023-06-05T02:15:16.832Z,1.30
2023-06-05T02:17:54.096Z,1.20
2023-06-05T02:20:24.616Z,1.30
2023-06-05T02:22:53.101Z,1.33
2023-06-05T02:25:20.337Z,1.07
2023-06-05T02:27:48.994Z,1.40
2023-06-05T02:30:16.283Z,1.30
2023-06-05T02:32:44.912Z,1.23
2023-06-05T02:35:12.854Z,1.27
2023-06-05T02:37:44.583Z,1.40
2023-06-05T02:40:14.241Z,1.43
2023-06-05T02:42:41.706Z,1.37
2023-06-05T02:45:09.830Z,1.40
2023-06-05T02:47:37.385Z,1.27
2023-06-05T02:50:05.367Z,1.30
2023-06-05T02:52:36.736Z,1.50
2023-06-05T02:55:10.767Z,1.20
2023-06-05T02:57:42.419Z,1.40
2023-06-05T03:00:15.765Z,1.10
2023-06-05T03:02:43.285Z,1.30
2023-06-05T03:05:11.092Z,1.30
2023-06-05T03:07:38.096Z,1.20
2023-06-05T03:10:08.791Z,1.37
2023-06-05T03:12:35.635Z,1.37
2023-06-05T03:15:02.804Z,1.20
2023-06-05T03:17:31.702Z,1.40
2023-06-05T03:19:58.548Z,1.27
2023-06-05T03:22:26.274Z,1.30
2023-06-05T03:24:53.304Z,1.40
2023-06-05T03:27:20.349Z,1.30
2023-06-05T03:29:47.217Z,1.10
2023-06-05T03:32:13.990Z,1.40
2023-06-05T03:34:43.942Z,1.10
2023-06-05T03:37:11.055Z,1.37
2023-06-05T03:39:39.450Z,1.40
2023-06-05T03:42:10.156Z,1.40
2023-06-05T03:44:36.964Z,1.37
2023-06-05T03:47:04.738Z,1.37
2023-06-05T03:49:32.904Z,1.20
2023-06-05T03:52:04.659Z,1.30
2023-06-05T03:54:34.715Z,1.47
2023-06-05T03:57:01.919Z,1.50
2023-06-05T03:59:29.718Z,1.30
2023-06-05T04:02:00.960Z,1.20
2023-06-05T04:04:27.725Z,1.30
2023-06-05T04:06:57.730Z,1.20
2023-06-05T04:09:26.845Z,1.20
2023-06-05T04:11:54.771Z,1.40
2023-06-05T04:14:21.940Z,1.30
2023-06-05T04:16:49.356Z,1.40
2023-06-05T04:19:22.094Z,1.33
2023-06-05T04:21:53.205Z,1.30
2023-06-05T04:24:20.114Z,1.17
2023-06-05T04:26:48.685Z,1.40
2023-06-05T04:29:16.983Z,1.77
2023-06-05T04:31:48.380Z,1.53
2023-06-05T04:34:15.664Z,1.47
2023-06-05T04:36:42.538Z,1.30
2023-06-05T04:39:17.644Z,1.40
2023-06-05T04:41:47.857Z,1.20
2023-06-05T04:44:23.441Z,1.40
2023-06-05T04:46:50.630Z,1.40
2023-06-05T04:49:17.806Z,1.50
2023-06-05T04:51:45.299Z,1.50
2023-06-05T04:54:13.367Z,1.30
2023-06-05T04:56:41.008Z,1.20
2023-06-05T04:59:09.092Z,1.27
2023-06-05T05:01:36.426Z,1.40
2023-06-05T05:04:03.796Z,1.20
2023-06-05T05:06:32.111Z,1.20
2023-06-05T05:08:59.285Z,1.20
2023-06-05T05:11:27.330Z,1.23
2023-06-05T05:13:54.306Z,1.30
2023-06-05T05:16:22.072Z,1.17
2023-06-05T05:18:48.995Z,1.30
2023-06-05T05:21:16.816Z,1.33
2023-06-05T05:23:43.656Z,1.53
2023-06-05T05:26:11.475Z,1.40
2023-06-05T05:28:38.200Z,1.67
2023-06-05T05:31:05.808Z,1.20
2023-06-05T05:33:35.064Z,1.03
2023-06-05T05:36:03.576Z,1.40
2023-06-05T05:38:30.764Z,1.40
2023-06-05T05:40:57.574Z,1.30
2023-06-05T05:43:24.372Z,1.17
2023-06-05T05:45:51.287Z,1.33
2023-06-05T05:48:18.498Z,1.10
2023-06-05T05:50:45.554Z,1.10
2023-06-05T05:53:12.300Z,1.03
2023-06-05T05:55:39.535Z,1.40
2023-06-05T05:58:06.363Z,1.20
2023-06-05T06:00:33.227Z,1.17
2023-06-05T06:03:00.243Z,1.13
2023-06-05T06:05:27.222Z,1.20
2023-06-05T06:07:53.923Z,1.23
2023-06-05T06:10:21.001Z,1.20
2023-06-05T06:12:47.879Z,1.40
2023-06-05T06:15:15.261Z,1.23
2023-06-05T06:17:42.133Z,1.30
2023-06-05T06:20:12.457Z,1.10
2023-06-05T06:22:39.848Z,1.30
2023-06-05T06:25:08.197Z,1.27
2023-06-05T06:27:36.116Z,1.33
2023-06-05T06:30:03.749Z,1.23
2023-06-05T06:32:30.917Z,1.10
2023-06-05T06:34:58.259Z,1.20
2023-06-05T06:37:25.603Z,1.30
2023-06-05T06:39:52.406Z,1.30
2023-06-05T06:42:19.435Z,1.30
2023-06-05T06:44:56.961Z,1.20
2023-06-05T06:47:25.815Z,1.30
2023-06-05T06:49:52.981Z,1.30
2023-06-05T06:52:22.600Z,1.40
2023-06-05T06:54:51.516Z,1.30
2023-06-05T06:57:18.748Z,1.10
2023-06-05T06:59:46.727Z,1.20
2023-06-05T07:02:18.953Z,1.23
2023-06-05T07:04:45.922Z,1.47
2023-06-05T07:07:15.230Z,1.43
2023-06-05T07:09:43.594Z,1.37
2023-06-05T07:12:21.518Z,1.60
2023-06-05T07:14:48.360Z,1.33
2023-06-05T07:17:15.099Z,1.40
2023-06-05T07:19:41.974Z,1.60
2023-06-05T07:22:08.765Z,1.40
2023-06-05T07:24:36.647Z,1.43
2023-06-05T07:27:04.580Z,1.17
2023-06-05T07:29:31.530Z,1.37
2023-06-05T07:31:59.571Z,1.70
2023-06-05T07:34:29.369Z,1.20
2023-06-05T07:36:57.574Z,1.40
2023-06-05T07:39:24.526Z,1.70
2023-06-05T07:41:51.555Z,1.20
2023-06-05T07:44:19.988Z,1.50
2023-06-05T07:46:48.592Z,1.40
2023-06-05T07:49:16.971Z,1.47
2023-06-05T07:51:44.720Z,1.50
2023-06-05T07:54:12.857Z,1.43
2023-06-05T07:56:40.653Z,1.50
2023-06-05T07:59:08.425Z,1.20
2023-06-05T08:01:39.772Z,1.83
2023-06-05T08:04:08.793Z,1.73
2023-06-05T08:06:38.952Z,1.50
2023-06-05T08:09:07.245Z,1.70
2023-06-05T08:11:34.085Z,1.23
2023-06-05T08:14:00.891Z,1.23
2023-06-05T08:16:27.734Z,1.90
2023-06-05T08:18:54.527Z,1.50
2023-06-05T08:21:21.393Z,1.63
2023-06-05T08:23:48.124Z,1.55
2023-06-05T08:26:14.993Z,1.58
2023-06-05T08:28:42.732Z,1.50
2023-06-05T08:31:10.890Z,1.90
2023-06-05T08:33:39.015Z,1.77
2023-06-05T08:36:06.534Z,1.42
2023-06-05T08:38:34.658Z,1.77
2023-06-05T08:41:06.530Z,2.08
2023-06-05T08:43:33.401Z,1.60
2023-06-05T08:46:00.364Z,1.60
2023-06-05T08:48:27.335Z,1.27
2023-06-05T08:50:56.004Z,1.77
2023-06-05T08:53:26.682Z,1.80
2023-06-05T08:55:55.847Z,1.80
2023-06-05T08:58:23.165Z,1.80
2023-06-05T09:00:50.325Z,1.73
2023-06-05T09:03:19.589Z,2.08
2023-06-05T09:05:47.190Z,1.73
2023-06-05T09:08:15.697Z,1.83
2023-06-05T09:10:42.416Z,1.60
2023-06-05T09:13:10.588Z,1.60
2023-06-05T09:15:38.060Z,1.48
2023-06-05T09:18:09.803Z,1.75
2023-06-05T09:20:41.802Z,1.50
2023-06-05T09:23:28.245Z,1.80
2023-06-05T09:25:59.905Z,1.50
2023-06-05T09:28:27.508Z,1.55
2023-06-05T09:30:54.221Z,1.45
2023-06-05T09:33:21.096Z,1.70
2023-06-05T09:35:47.876Z,1.80
2023-06-05T09:38:30.951Z,1.70
2023-06-05T09:41:04.530Z,1.50
2023-06-05T09:43:31.611Z,1.73
2023-06-05T09:45:58.457Z,1.98
2023-06-05T09:48:26.741Z,2.00
2023-06-05T09:50:54.510Z,1.85
2023-06-05T09:53:22.615Z,1.83
2023-06-05T09:55:49.608Z,1.88
2023-06-05T09:58:18.734Z,1.75
2023-06-05T10:00:47.327Z,1.85
2023-06-05T10:03:18.757Z,1.83
2023-06-05T10:05:49.564Z,2.00
2023-06-05T10:08:17.447Z,1.80
2023-06-05T10:10:44.429Z,1.88
2023-06-05T10:13:12.642Z,1.88
2023-06-05T10:15:43.383Z,2.05
2023-06-05T10:18:10.949Z,1.95
2023-06-05T10:20:38.245Z,2.00
2023-06-05T10:23:06.526Z,1.95
2023-06-05T10:25:35.952Z,1.65
2023-06-05T10:28:32.132Z,1.70
2023-06-05T10:31:27.516Z,1.80
2023-06-05T10:34:31.911Z,1.98
2023-06-05T10:37:36.826Z,2.10
2023-06-05T10:40:05.947Z,1.92
2023-06-05T10:42:32.905Z,2.03
2023-06-05T10:45:00.638Z,2.00
2023-06-05T10:47:51.990Z,2.00
2023-06-05T10:50:19.071Z,2.03
2023-06-05T10:52:50.494Z,1.92
2023-06-05T10:55:18.295Z,2.10
2023-06-05T10:58:04.093Z,2.25
2023-06-05T11:00:34.351Z,1.85
2023-06-05T11:03:02.334Z,2.20
2023-06-05T11:05:30.583Z,1.90
2023-06-05T11:08:15.202Z,2.42
2023-06-05T11:11:04.892Z,2.28
2023-06-05T11:13:57.164Z,2.30
2023-06-05T11:16:31.679Z,2.05
2023-06-05T11:19:16.816Z,2.20
2023-06-05T11:22:03.966Z,2.17
2023-06-05T11:24:31.503Z,2.20
2023-06-05T11:26:58.240Z,2.22
2023-06-05T11:29:26.926Z,2.00
2023-06-05T11:31:54.737Z,2.13
2023-06-05T11:34:21.981Z,2.10
2023-06-05T11:36:51.795Z,2.28
2023-06-05T11:39:20.264Z,1.98
2023-06-05T11:41:49.230Z,2.10
2023-06-05T11:44:16.415Z,2.15
2023-06-05T11:46:44.685Z,2.17
2023-06-05T11:49:28.240Z,2.20
2023-06-05T11:51:56.032Z,1.90
2023-06-05T11:54:35.210Z,2.15
2023-06-05T11:57:13.215Z,2.38
2023-06-05T11:59:40.242Z,2.22
2023-06-05T12:02:07.877Z,2.33
2023-06-05T12:04:35.790Z,2.13
2023-06-05T12:07:03.849Z,2.28
2023-06-05T12:09:31.052Z,2.38
2023-06-05T12:12:08.160Z,2.67
2023-06-05T12:14:35.775Z,2.10
2023-06-05T12:17:10.903Z,2.28
2023-06-05T12:19:38.140Z,2.30
2023-06-05T12:22:06.694Z,2.20
2023-06-05T12:24:34.869Z,2.25
2023-06-05T12:27:05.043Z,2.15
2023-06-05T12:29:34.156Z,2.40
2023-06-05T12:32:03.366Z,2.47
2023-06-05T12:34:58.157Z,2.53
2023-06-05T12:37:45.607Z,2.60
2023-06-05T12:40:14.937Z,2.13
2023-06-05T12:42:46.686Z,2.40
2023-06-05T12:45:13.859Z,2.38
2023-06-05T12:47:41.923Z,2.33
2023-06-05T12:50:13.205Z,2.40
2023-06-05T12:52:42.141Z,2.15
2023-06-05T12:55:09.858Z,2.45
2023-06-05T12:57:36.655Z,2.05
2023-06-05T13:00:15.121Z,2.70
2023-06-05T13:02:46.282Z,2.35
2023-06-05T13:05:13.533Z,2.30
2023-06-05T13:07:40.885Z,2.20
2023-06-05T13:10:08.716Z,2.17
2023-06-05T13:12:35.626Z,2.03
2023-06-05T13:15:03.667Z,2.00
2023-06-05T13:17:34.446Z,2.10
2023-06-05T13:20:01.466Z,2.58
2023-06-05T13:22:28.434Z,2.08
2023-06-05T13:24:55.391Z,2.38
2023-06-05T13:27:22.297Z,2.30
2023-06-05T13:29:49.396Z,2.10
2023-06-05T13:32:16.581Z,2.40
2023-06-05T13:34:43.359Z,2.28
2023-06-05T13:37:14.467Z,2.50
2023-06-05T13:39:41.685Z,2.00
2023-06-05T13:42:09.671Z,2.10
2023-06-05T13:44:36.475Z,1.95
2023-06-05T13:47:04.397Z,2.22
2023-06-05T13:49:32.305Z,2.20
2023-06-05T13:51:59.153Z,2.28
2023-06-05T13:54:25.974Z,2.20
2023-06-05T13:56:52.835Z,2.20
2023-06-05T13:59:19.773Z,2.30
2023-06-05T14:01:46.583Z,2.13
2023-06-05T14:04:13.439Z,2.13
2023-06-05T14:06:42.794Z,2.20
2023-06-05T14:09:09.843Z,1.92
2023-06-05T14:11:37.860Z,2.22
2023-06-05T14:14:04.830Z,2.28
2023-06-05T14:16:32.154Z,1.90
2023-06-05T14:18:58.978Z,2.42
2023-06-05T14:21:26.263Z,2.20
2023-06-05T14:23:53.067Z,2.40
2023-06-05T14:26:19.768Z,2.10
2023-06-05T14:28:46.459Z,2.33
2023-06-05T14:31:14.016Z,2.50
2023-06-05T14:33:41.221Z,2.28
2023-06-05T14:36:08.366Z,1.98
2023-06-05T14:38:35.508Z,2.30
2023-06-05T14:41:02.279Z,2.45
2023-06-05T14:43:29.068Z,2.63
2023-06-05T14:45:55.902Z,2.28
2023-06-05T14:48:22.651Z,2.28
2023-06-05T14:50:50.720Z,2.50
2023-06-05T14:53:17.509Z,2.00
2023-06-05T14:55:44.248Z,2.50
2023-06-05T14:58:11.719Z,2.33
2023-06-05T15:00:39.240Z,2.10
2023-06-05T15:03:06.365Z,2.35
2023-06-05T15:05:33.625Z,2.30
2023-06-05T15:08:00.537Z,2.50
2023-06-05T15:10:28.021Z,2.47
2023-06-05T15:12:58.665Z,2.40
2023-06-05T15:15:26.391Z,2.30
2023-06-05T15:17:56.175Z,2.60
2023-06-05T15:20:24.571Z,2.40
2023-06-05T15:23:11.444Z,2.45
2023-06-05T15:25:41.464Z,2.55
2023-06-05T15:28:08.243Z,2.40
2023-06-05T15:30:34.990Z,2.10
2023-06-05T15:33:01.852Z,2.53
2023-06-05T15:35:28.776Z,2.42
2023-06-05T15:37:56.207Z,2.28
2023-06-05T15:40:22.931Z,2.55
2023-06-05T15:43:06.501Z,2.42
2023-06-05T15:45:33.802Z,2.47
2023-06-05T15:48:00.924Z,2.63
2023-06-05T15:50:27.833Z,2.35
2023-06-05T15:52:54.766Z,2.17
2023-06-05T15:55:21.660Z,2.40
2023-06-05T15:57:49.471Z,2.72
2023-06-05T16:00:18.375Z,2.15
2023-06-05T16:02:45.884Z,2.35
2023-06-05T16:05:13.212Z,2.28
2023-06-05T16:07:40.588Z,2.00
2023-06-05T16:10:07.794Z,2.45
2023-06-05T16:12:34.712Z,2.20
2023-06-05T16:15:01.776Z,2.60
2023-06-05T16:17:29.001Z,2.25
2023-06-05T16:19:58.330Z,2.28
2023-06-05T16:22:25.677Z,2.55
2023-06-05T16:24:52.966Z,2.50
2023-06-05T16:27:20.715Z,2.28
2023-06-05T16:29:47.563Z,2.30
2023-06-05T16:32:14.602Z,2.38
2023-06-05T16:34:41.905Z,2.28
2023-06-05T16:37:09.053Z,2.00
2023-06-05T16:39:36.235Z,1.88
2023-06-05T16:42:03.922Z,2.20
2023-06-05T16:44:31.117Z,2.42
2023-06-05T16:46:57.998Z,2.40
2023-06-05T16:49:24.820Z,2.37
2023-06-05T16:51:51.673Z,2.20
2023-06-05T16:54:18.780Z,1.90
2023-06-05T16:56:45.512Z,2.50
2023-06-05T16:59:13.436Z,2.30
2023-06-05T17:01:40.305Z,2.23
2023-06-05T17:04:08.890Z,2.30
2023-06-05T17:06:36.696Z,2.80
2023-06-05T17:09:04.545Z,2.60
2023-06-05T17:11:32.102Z,2.08
2023-06-05T17:13:59.407Z,1.88
2023-06-05T17:16:26.287Z,2.10
2023-06-05T17:18:53.096Z,9.40
2023-06-05T17:21:20.363Z,4.90
2023-06-05T17:23:48.909Z,2.20
2023-06-05T17:26:16.454Z,3.20
2023-06-05T17:28:43.301Z,2.80
2023-06-05T17:31:10.511Z,2.37
2023-06-05T17:33:37.504Z,2.07
2023-06-05T17:36:04.474Z,2.67
2023-06-05T17:38:31.471Z,2.27
2023-06-05T17:40:58.375Z,2.10
2023-06-05T17:43:25.181Z,2.30
2023-06-05T17:45:51.996Z,2.10
2023-06-05T17:48:18.897Z,2.10
2023-06-05T17:50:46.073Z,1.90
2023-06-05T17:53:13.025Z,2.10
2023-06-05T17:55:39.954Z,2.20
2023-06-05T17:58:06.698Z,17.30
2023-06-05T18:00:33.731Z,6.47
2023-06-05T18:03:00.907Z,2.37
2023-06-05T18:05:27.829Z,2.00
2023-06-05T18:07:54.595Z,2.00
2023-06-05T18:10:21.948Z,2.20
2023-06-05T18:12:48.740Z,1.90
2023-06-05T18:15:15.703Z,1.80
2023-06-05T18:17:42.451Z,2.30
2023-06-05T18:20:09.803Z,1.90
2023-06-05T18:22:36.657Z,2.00
2023-06-05T18:25:04.063Z,1.90
2023-06-05T18:27:31.166Z,2.00
2023-06-05T18:29:57.989Z,1.90
2023-06-05T18:32:25.044Z,1.93
2023-06-05T18:34:51.886Z,1.80
2023-06-05T18:37:18.681Z,1.87
2023-06-05T18:39:45.863Z,2.33
2023-06-05T18:42:12.710Z,1.93
2023-06-05T18:44:39.492Z,1.70
2023-06-05T18:47:09.014Z,2.27
2023-06-05T18:49:36.433Z,1.87
2023-06-05T18:52:03.337Z,1.90
2023-06-05T18:54:30.111Z,2.00
2023-06-05T18:56:57.060Z,1.97
2023-06-05T18:59:23.796Z,2.07
2023-06-05T19:01:50.683Z,2.10
2023-06-05T19:04:17.622Z,1.90
2023-06-05T19:06:44.474Z,2.10
2023-06-05T19:09:11.440Z,1.73
2023-06-05T19:11:40.838Z,1.80
2023-06-05T19:14:07.630Z,2.00
2023-06-05T19:16:34.968Z,1.77
2023-06-05T19:19:01.874Z,2.10
2023-06-05T19:21:28.593Z,2.20
2023-06-05T19:23:55.404Z,2.10
2023-06-05T19:26:22.725Z,1.93
2023-06-05T19:28:49.490Z,1.97
2023-06-05T19:31:16.609Z,2.37
2023-06-05T19:33:43.541Z,2.13
2023-06-05T19:36:10.440Z,1.90
2023-06-05T19:38:37.272Z,2.00
2023-06-05T19:41:05.027Z,9.17
2023-06-05T19:43:32.088Z,2.77
2023-06-05T19:45:58.863Z,2.00
2023-06-05T19:48:25.608Z,2.17
2023-06-05T19:50:52.467Z,2.57
2023-06-05T19:53:19.343Z,1.80
2023-06-05T19:55:46.177Z,1.90
2023-06-05T19:58:13.021Z,1.80
2023-06-05T20:00:39.857Z,2.00
2023-06-05T20:03:06.746Z,2.30
2023-06-05T20:05:33.742Z,1.93
2023-06-05T20:08:00.582Z,1.87
2023-06-05T20:10:27.404Z,2.00
2023-06-05T20:12:54.152Z,2.13
2023-06-05T20:15:21.196Z,2.00
2023-06-05T20:17:48.077Z,1.77
2023-06-05T20:20:15.317Z,2.03
2023-06-05T20:22:42.136Z,2.00
2023-06-05T20:25:09.704Z,2.27
2023-06-05T20:27:38.346Z,1.87
2023-06-05T20:30:06.922Z,2.00
2023-06-05T20:32:33.800Z,2.30
2023-06-05T20:35:00.583Z,2.30
2023-06-05T20:37:31.246Z,5.60
2023-06-05T20:39:59.731Z,8.70
2023-06-05T20:42:28.464Z,26.40
2023-06-05T20:44:58.656Z,31.07
2023-06-05T20:47:26.539Z,6.93
2023-06-05T20:49:58.768Z,3.27
2023-06-05T20:52:25.832Z,2.27
2023-06-05T20:54:52.662Z,2.50
2023-06-05T20:57:21.318Z,2.10
2023-06-05T20:59:51.606Z,5.47
2023-06-05T21:02:18.474Z,11.43
2023-06-05T21:04:46.212Z,3.73
2023-06-05T21:07:13.033Z,3.07
2023-06-05T21:09:40.887Z,2.50
2023-06-05T21:12:08.512Z,1.80
2023-06-05T21:14:38.685Z,2.00
2023-06-05T21:17:07.285Z,2.40
2023-06-05T21:19:34.225Z,2.03
2023-06-05T21:22:02.607Z,1.97
2023-06-05T21:24:29.321Z,1.93
2023-06-05T21:26:57.017Z,2.10
2023-06-05T21:29:24.094Z,1.90
2023-06-05T21:31:51.169Z,1.63
2023-06-05T21:34:18.743Z,1.90
2023-06-05T21:36:46.208Z,1.90
2023-06-05T21:39:16.742Z,2.17
2023-06-05T21:41:44.472Z,2.13
2023-06-05T21:44:11.448Z,2.03
2023-06-05T21:46:38.344Z,1.93
2023-06-05T21:49:05.661Z,2.00
2023-06-05T21:51:34.523Z,1.80
2023-06-05T21:54:01.995Z,1.73
2023-06-05T21:56:28.795Z,1.73
2023-06-05T21:58:55.788Z,1.73
2023-06-05T22:01:22.695Z,1.80
2023-06-05T22:03:50.209Z,1.80
2023-06-05T22:06:20.098Z,1.83
2023-06-05T22:08:47.384Z,1.80
2023-06-05T22:11:14.888Z,2.13
2023-06-05T22:13:43.114Z,2.07
2023-06-05T22:16:10.272Z,1.60
2023-06-05T22:18:42.310Z,2.07
2023-06-05T22:21:13.802Z,1.83
2023-06-05T22:23:43.156Z,1.73
2023-06-05T22:26:09.971Z,1.80
2023-06-05T22:28:36.854Z,2.10
2023-06-05T22:31:03.850Z,2.00
2023-06-05T22:33:33.707Z,1.87
2023-06-05T22:36:02.054Z,1.73
2023-06-05T22:38:31.942Z,1.87
2023-06-05T22:40:58.686Z,1.77
2023-06-05T22:43:25.484Z,2.03
2023-06-05T22:45:52.290Z,2.20
2023-06-05T22:48:20.621Z,1.90
2023-06-05T22:50:54.336Z,1.90
2023-06-05T22:53:22.119Z,2.07
2023-06-05T22:55:48.932Z,2.07
2023-06-05T22:58:15.681Z,2.10
2023-06-05T23:00:43.496Z,1.93
2023-06-05T23:03:11.159Z,1.77
2023-06-05T23:05:38.053Z,2.00
2023-06-05T23:08:04.879Z,1.83
2023-06-05T23:10:31.729Z,2.00
2023-06-05T23:12:58.437Z,2.13
2023-06-05T23:15:28.005Z,1.80
2023-06-05T23:17:55.077Z,1.80
2023-06-05T23:20:21.913Z,1.90
2023-06-05T23:22:48.701Z,2.10
2023-06-05T23:25:17.671Z,1.90
2023-06-05T23:27:44.449Z,1.90
2023-06-05T23:30:11.733Z,1.93
2023-06-05T23:32:38.652Z,1.93
2023-06-05T23:35:05.644Z,2.07
2023-06-05T23:37:32.504Z,1.93
2023-06-05T23:39:59.247Z,1.90
2023-06-05T23:42:27.268Z,1.83
2023-06-05T23:44:54.070Z,2.00
2023-06-05T23:47:21.669Z,1.97
2023-06-05T23:49:48.844Z,1.73
2023-06-05T23:52:15.719Z,2.00
2023-06-05T23:54:42.477Z,2.00
2023-06-05T23:57:09.244Z,1.80
2023-06-05T23:59:36.055Z,2.10
